Terminal Aerodrome Forecast
Issued by NWS

Home | Current Version | Previous Version | Text Only | Print | Product List | Glossary On
Versions: 1 2 3 4 5 6 7 8 9 10 11 12 13 14 15 16 17 18 19 20 21 22 23 24 25 26
000
FTUS43 KABR 280200 AAA
TAFMBG
TAF AMD
KMBG 280257Z 2803/2824 13007KT P6SM FEW100 FEW250
     FM280900 VRB06KT 3SM BR SKC
     FM281500 12006KT P6SM SCT250=

USA.gov is the U.S. government's official web portal to all federal, state and local government web resources and services.